createdAt,value
2023-03-25T00:01:26.003Z,8.90
2023-03-25T00:03:53.588Z,6.47
2023-03-25T00:06:21.137Z,7.10
2023-03-25T00:08:48.788Z,7.18
2023-03-25T00:11:16.285Z,5.93
2023-03-25T00:13:44.960Z,6.40
2023-03-25T00:16:12.235Z,7.18
2023-03-25T00:18:41.121Z,5.20
2023-03-25T00:21:12.077Z,5.72
2023-03-25T00:23:40.635Z,5.72
2023-03-25T00:26:10.364Z,5.05
2023-03-25T00:28:39.152Z,5.43
2023-03-25T00:31:13.816Z,9.02
2023-03-25T00:33:44.616Z,6.80
2023-03-25T00:36:13.957Z,5.97
2023-03-25T00:38:43.848Z,5.90
2023-03-25T00:41:26.087Z,6.20
2023-03-25T00:43:56.477Z,5.97
2023-03-25T00:46:27.321Z,5.90
2023-03-25T00:48:57.577Z,5.55
2023-03-25T00:51:26.282Z,5.72
2023-03-25T00:53:56.082Z,4.78
2023-03-25T00:56:24.724Z,5.68
2023-03-25T00:58:52.920Z,6.20
2023-03-25T01:01:27.692Z,5.85
2023-03-25T01:03:59.519Z,17.35
2023-03-25T01:06:32.817Z,11.90
2023-03-25T01:09:01.829Z,19.30
2023-03-25T01:11:35.039Z,20.73
2023-03-25T01:14:04.605Z,14.80
2023-03-25T01:16:32.710Z,8.55
2023-03-25T01:18:59.972Z,4.88
2023-03-25T01:21:27.649Z,5.75
2023-03-25T01:23:56.012Z,5.65
2023-03-25T01:26:23.487Z,8.93
2023-03-25T01:28:52.314Z,7.88
2023-03-25T01:31:20.359Z,6.45
2023-03-25T01:33:49.596Z,5.88
2023-03-25T01:36:16.921Z,5.28
2023-03-25T01:38:44.297Z,6.18
2023-03-25T01:41:12.998Z,5.55
2023-03-25T01:43:40.339Z,5.45
2023-03-25T01:46:17.568Z,5.68
2023-03-25T01:48:45.554Z,5.28
2023-03-25T01:51:17.460Z,5.20
2023-03-25T01:53:45.709Z,4.80
2023-03-25T01:56:20.947Z,5.60
2023-03-25T01:58:53.072Z,5.03
2023-03-25T02:01:22.573Z,4.75
2023-03-25T02:04:03.470Z,5.70
2023-03-25T02:06:45.367Z,6.85
2023-03-25T02:09:16.794Z,6.47
2023-03-25T02:11:43.929Z,5.90
2023-03-25T02:14:15.779Z,5.22
2023-03-25T02:16:54.527Z,5.60
2023-03-25T02:19:37.347Z,5.55
2023-03-25T02:22:38.160Z,7.20
2023-03-25T02:25:21.639Z,8.18
2023-03-25T02:28:26.052Z,8.60
2023-03-25T02:31:08.581Z,6.82
2023-03-25T02:34:10.273Z,6.50
2023-03-25T02:36:52.733Z,5.65
2023-03-25T02:40:01.057Z,5.63
2023-03-25T02:42:38.436Z,5.88
2023-03-25T02:45:21.288Z,6.05
2023-03-25T02:48:28.409Z,5.93
2023-03-25T02:50:58.770Z,6.95
2023-03-25T02:53:34.151Z,7.00
2023-03-25T02:56:06.563Z,7.50
2023-03-25T02:58:34.408Z,7.35
2023-03-25T03:01:02.794Z,6.93
2023-03-25T03:03:30.277Z,8.10
2023-03-25T03:06:01.079Z,8.23
2023-03-25T03:08:54.345Z,8.98
2023-03-25T03:11:43.871Z,8.77
2023-03-25T03:14:23.546Z,8.60
2023-03-25T03:17:18.576Z,8.95
2023-03-25T03:19:59.321Z,8.02
2023-03-25T03:22:34.798Z,8.35
2023-03-25T03:25:28.584Z,8.57
2023-03-25T03:28:00.485Z,7.25
2023-03-25T03:30:39.565Z,7.20
2023-03-25T03:33:13.758Z,7.60
2023-03-25T03:36:06.912Z,7.18
2023-03-25T03:38:40.585Z,7.85
2023-03-25T03:43:47.638Z,7.20
2023-03-25T03:46:46.574Z,7.57
2023-03-25T03:49:18.193Z,8.00
2023-03-25T03:52:02.689Z,7.63
2023-03-25T03:54:47.653Z,8.00
2023-03-25T03:57:41.756Z,7.40
2023-03-25T04:01:00.323Z,7.60
2023-03-25T04:03:39.172Z,7.30
2023-03-25T04:06:47.991Z,7.55
2023-03-25T04:09:27.735Z,7.10
2023-03-25T04:12:06.070Z,7.18
2023-03-25T04:14:33.647Z,6.57
2023-03-25T04:17:01.152Z,6.82
2023-03-25T04:19:28.703Z,7.50
2023-03-25T04:21:56.070Z,6.40
2023-03-25T04:24:25.346Z,6.05
2023-03-25T04:26:53.382Z,6.13
2023-03-25T04:29:20.392Z,6.18
2023-03-25T04:31:50.223Z,9.20
2023-03-25T04:34:17.557Z,6.07
2023-03-25T04:36:44.614Z,6.30
2023-03-25T04:39:18.035Z,5.57
2023-03-25T04:41:45.475Z,5.80
2023-03-25T04:44:13.045Z,5.90
2023-03-25T04:46:41.610Z,5.40
2023-03-25T04:49:19.455Z,5.63
2023-03-25T04:51:52.647Z,5.28
2023-03-25T04:54:21.905Z,5.25
2023-03-25T04:56:51.434Z,5.28
2023-03-25T04:59:20.085Z,6.03
2023-03-25T05:01:50.757Z,6.38
2023-03-25T05:04:19.178Z,6.78
2023-03-25T05:06:50.848Z,5.72
2023-03-25T05:09:25.696Z,5.88
2023-03-25T05:11:54.192Z,6.50
2023-03-25T05:14:22.636Z,5.97
2023-03-25T05:16:50.415Z,5.25
2023-03-25T05:19:24.993Z,5.53
2023-03-25T05:21:52.613Z,5.35
2023-03-25T05:24:20.052Z,5.22
2023-03-25T05:26:47.323Z,5.00
2023-03-25T05:29:16.346Z,4.82
2023-03-25T05:31:46.670Z,5.28
2023-03-25T05:34:15.004Z,4.97
2023-03-25T05:36:42.125Z,4.85
2023-03-25T05:39:11.178Z,5.35
2023-03-25T05:41:41.845Z,5.10
2023-03-25T05:44:15.122Z,4.38
2023-03-25T05:46:43.325Z,4.72
2023-03-25T05:49:10.830Z,4.70
2023-03-25T05:51:38.890Z,5.07
2023-03-25T05:54:12.034Z,4.88
2023-03-25T05:56:40.352Z,4.80
2023-03-25T05:59:09.605Z,4.75
2023-03-25T06:01:39.671Z,4.78
2023-03-25T06:04:10.610Z,4.80
2023-03-25T06:06:40.467Z,4.88
2023-03-25T06:09:10.412Z,5.35
2023-03-25T06:11:41.017Z,6.90
2023-03-25T06:14:12.457Z,5.97
2023-03-25T06:16:41.042Z,5.97
2023-03-25T06:19:10.479Z,5.43
2023-03-25T06:21:39.149Z,5.03
2023-03-25T06:24:08.883Z,4.65
2023-03-25T06:26:36.485Z,4.35
2023-03-25T06:29:04.953Z,4.82
2023-03-25T06:31:34.342Z,5.13
2023-03-25T06:34:02.107Z,5.53
2023-03-25T06:36:29.836Z,5.65
2023-03-25T06:38:58.680Z,6.32
2023-03-25T06:41:28.429Z,5.68
2023-03-25T06:43:55.732Z,5.20
2023-03-25T06:46:23.343Z,4.95
2023-03-25T06:48:50.771Z,4.90
2023-03-25T06:51:18.225Z,5.32
2023-03-25T06:53:46.801Z,5.30
2023-03-25T06:56:14.163Z,4.80
2023-03-25T06:58:42.250Z,4.30
2023-03-25T07:01:11.547Z,4.53
2023-03-25T07:03:39.367Z,3.95
2023-03-25T07:06:07.476Z,6.03
2023-03-25T07:08:35.529Z,4.10
2023-03-25T07:11:06.458Z,4.40
2023-03-25T07:13:34.550Z,4.05
2023-03-25T07:16:03.421Z,3.60
2023-03-25T07:18:31.297Z,3.83
2023-03-25T07:20:58.582Z,3.85
2023-03-25T07:23:26.286Z,3.55
2023-03-25T07:25:53.967Z,3.47
2023-03-25T07:28:22.281Z,3.33
2023-03-25T07:30:49.823Z,3.90
2023-03-25T07:33:17.223Z,3.88
2023-03-25T07:35:45.784Z,3.78
2023-03-25T07:38:13.317Z,4.22
2023-03-25T07:40:40.975Z,4.88
2023-03-25T07:43:08.286Z,4.35
2023-03-25T07:45:43.424Z,4.38
2023-03-25T07:48:14.990Z,3.83
2023-03-25T07:50:44.064Z,2.60
2023-03-25T07:53:11.769Z,3.20
2023-03-25T07:55:38.935Z,3.00
2023-03-25T07:58:06.280Z,3.00
2023-03-25T08:00:34.070Z,3.20
2023-03-25T08:03:02.650Z,2.90
2023-03-25T08:05:31.799Z,2.92
2023-03-25T08:08:02.140Z,3.35
2023-03-25T08:10:36.451Z,3.03
2023-03-25T08:13:04.967Z,2.60
2023-03-25T08:15:32.408Z,2.97
2023-03-25T08:18:07.533Z,3.40
2023-03-25T08:20:36.095Z,2.90
2023-03-25T08:23:03.512Z,3.08
2023-03-25T08:25:32.949Z,2.90
2023-03-25T08:28:00.479Z,2.67
2023-03-25T08:30:27.854Z,2.40
2023-03-25T08:32:55.660Z,2.45
2023-03-25T08:35:24.783Z,2.40
2023-03-25T08:37:51.955Z,2.75
2023-03-25T08:40:20.207Z,2.35
2023-03-25T08:42:47.839Z,2.42
2023-03-25T08:45:16.261Z,2.47
2023-03-25T08:47:49.862Z,3.20
2023-03-25T08:50:17.305Z,3.13
2023-03-25T08:52:44.620Z,2.47
2023-03-25T08:55:12.606Z,2.40
2023-03-25T08:57:40.062Z,2.20
2023-03-25T09:00:14.329Z,1.70
2023-03-25T09:02:44.251Z,1.98
2023-03-25T09:05:13.832Z,2.22
2023-03-25T09:07:41.202Z,1.30
2023-03-25T09:10:10.932Z,1.58
2023-03-25T09:12:39.733Z,1.80
2023-03-25T09:15:07.860Z,1.58
2023-03-25T09:17:35.154Z,2.45
2023-03-25T09:20:02.679Z,1.70
2023-03-25T09:22:30.137Z,1.50
2023-03-25T09:24:58.484Z,1.88
2023-03-25T09:27:28.223Z,1.50
2023-03-25T09:29:55.561Z,1.33
2023-03-25T09:32:22.953Z,1.70
2023-03-25T09:34:50.404Z,1.80
2023-03-25T09:37:18.082Z,1.75
2023-03-25T09:39:45.564Z,1.60
2023-03-25T09:42:33.484Z,2.53
2023-03-25T09:45:32.718Z,2.00
2023-03-25T09:48:28.917Z,1.70
2023-03-25T09:51:05.649Z,2.10
2023-03-25T09:53:37.246Z,2.00
2023-03-25T09:56:08.119Z,1.92
2023-03-25T09:58:46.109Z,1.80
2023-03-25T10:01:27.747Z,1.85
2023-03-25T10:04:29.315Z,2.10
2023-03-25T10:07:27.756Z,1.67
2023-03-25T10:10:22.899Z,1.90
2023-03-25T10:13:31.608Z,2.05
2023-03-25T10:16:18.883Z,1.80
2023-03-25T10:19:11.610Z,2.28
2023-03-25T10:21:54.041Z,2.72
2023-03-25T10:24:32.887Z,2.40
2023-03-25T10:26:59.927Z,2.30
2023-03-25T10:29:41.449Z,2.55
2023-03-25T10:32:17.658Z,4.00
2023-03-25T10:34:54.558Z,2.35
2023-03-25T10:37:34.386Z,2.80
2023-03-25T10:40:14.807Z,2.03
2023-03-25T10:43:13.638Z,2.05
2023-03-25T10:45:43.061Z,2.22
2023-03-25T10:48:29.614Z,1.92
2023-03-25T10:51:30.880Z,1.88
2023-03-25T10:53:58.936Z,2.40
2023-03-25T10:56:42.777Z,1.92
2023-03-25T10:59:38.764Z,2.22
2023-03-25T11:02:29.047Z,3.20
2023-03-25T11:05:06.834Z,2.63
2023-03-25T11:07:44.799Z,2.30
2023-03-25T11:10:21.624Z,2.10
2023-03-25T11:12:54.386Z,1.88
2023-03-25T11:15:30.168Z,1.73
2023-03-25T11:18:08.415Z,1.70
2023-03-25T11:20:56.980Z,1.80
2023-03-25T11:23:50.253Z,1.70
2023-03-25T11:26:24.040Z,1.83
2023-03-25T11:29:02.800Z,1.58
2023-03-25T11:31:38.316Z,1.77
2023-03-25T11:34:11.714Z,1.80
2023-03-25T11:36:55.451Z,1.45
2023-03-25T11:39:33.308Z,1.50
2023-03-25T11:42:11.170Z,1.30
2023-03-25T11:44:40.122Z,1.30
2023-03-25T11:47:11.232Z,1.73
2023-03-25T11:49:41.805Z,1.30
2023-03-25T11:52:22.738Z,1.40
2023-03-25T11:54:53.254Z,1.48
2023-03-25T11:57:27.572Z,1.10
2023-03-25T12:00:18.611Z,1.20
2023-03-25T12:02:46.518Z,1.10
2023-03-25T12:05:17.023Z,0.93
2023-03-25T12:07:49.360Z,0.90
2023-03-25T12:10:40.087Z,1.27
2023-03-25T12:13:32.341Z,1.00
2023-03-25T12:16:35.970Z,1.30
2023-03-25T12:19:14.067Z,1.40
2023-03-25T12:21:59.092Z,1.25
2023-03-25T12:24:37.065Z,1.40
2023-03-25T12:27:23.333Z,1.27
2023-03-25T12:30:12.820Z,1.30
2023-03-25T12:33:04.517Z,1.30
2023-03-25T12:35:50.639Z,1.50
2023-03-25T12:38:33.013Z,1.70
2023-03-25T12:41:23.538Z,1.10
2023-03-25T12:44:34.400Z,1.10
2023-03-25T12:47:14.887Z,1.67
2023-03-25T12:49:57.494Z,1.40
2023-03-25T12:53:14.181Z,1.25
2023-03-25T12:56:14.632Z,1.10
2023-03-25T12:58:56.311Z,1.30
2023-03-25T13:01:43.324Z,1.30
2023-03-25T13:04:35.042Z,1.50
2023-03-25T13:07:15.077Z,1.40
2023-03-25T13:10:12.447Z,1.40
2023-03-25T13:12:50.582Z,1.05
2023-03-25T13:15:33.052Z,1.20
2023-03-25T13:18:07.638Z,1.15
2023-03-25T13:20:42.905Z,1.15
2023-03-25T13:23:18.074Z,1.10
2023-03-25T13:25:57.969Z,1.40
2023-03-25T13:28:47.151Z,1.10
2023-03-25T13:31:27.906Z,1.30
2023-03-25T13:34:23.639Z,1.20
2023-03-25T13:37:03.660Z,1.23
2023-03-25T13:40:10.974Z,1.15
2023-03-25T13:42:52.714Z,1.00
2023-03-25T13:45:22.476Z,0.98
2023-03-25T13:48:24.019Z,1.08
2023-03-25T13:50:54.057Z,1.50
2023-03-25T13:53:49.312Z,0.98
2023-03-25T13:56:46.862Z,1.05
2023-03-25T13:59:40.327Z,1.15
2023-03-25T14:02:40.258Z,0.95
2023-03-25T14:05:25.834Z,1.00
2023-03-25T14:08:24.009Z,0.80
2023-03-25T14:11:03.244Z,0.75
2023-03-25T14:13:39.029Z,1.23
2023-03-25T14:16:13.687Z,0.77
2023-03-25T14:18:53.839Z,0.90
2023-03-25T14:21:35.356Z,0.90
2023-03-25T14:24:10.085Z,1.02
2023-03-25T14:26:43.988Z,0.88
2023-03-25T14:29:32.668Z,1.00
2023-03-25T14:32:04.912Z,1.08
2023-03-25T14:34:32.299Z,1.40
2023-03-25T14:36:59.947Z,1.27
2023-03-25T14:39:33.180Z,1.10
2023-03-25T14:42:13.539Z,1.13
2023-03-25T14:44:42.778Z,1.30
2023-03-25T14:47:16.444Z,1.15
2023-03-25T14:52:31.313Z,1.17
2023-03-25T14:55:05.566Z,1.00
2023-03-25T14:57:41.114Z,1.20
2023-03-25T15:00:14.202Z,1.30
2023-03-25T15:02:44.047Z,1.13
2023-03-25T15:05:19.913Z,1.48
2023-03-25T15:08:05.230Z,4.38
2023-03-25T15:10:49.494Z,1.40
2023-03-25T15:13:35.274Z,1.27
2023-03-25T15:16:19.848Z,1.00
2023-03-25T15:18:49.834Z,0.98
2023-03-25T15:21:18.538Z,0.85
2023-03-25T15:23:53.473Z,1.02
2023-03-25T15:26:30.700Z,0.60
2023-03-25T15:29:20.077Z,0.90
2023-03-25T15:32:09.178Z,0.95
2023-03-25T15:34:54.951Z,1.10
2023-03-25T15:37:47.081Z,0.90
2023-03-25T15:40:32.377Z,0.80
2023-03-25T15:43:02.502Z,1.45
2023-03-25T15:45:56.304Z,2.70
2023-03-25T15:48:42.667Z,2.70
2023-03-25T15:51:25.216Z,2.10
2023-03-25T15:54:25.182Z,1.83
2023-03-25T15:56:57.630Z,1.50
2023-03-25T15:59:45.695Z,1.13
2023-03-25T16:02:28.423Z,1.10
2023-03-25T16:04:56.155Z,1.00
2023-03-25T16:07:28.965Z,1.10
2023-03-25T16:10:09.534Z,1.33
2023-03-25T16:12:37.030Z,1.48
2023-03-25T16:15:07.405Z,1.27
2023-03-25T16:17:35.420Z,2.42
2023-03-25T16:20:06.400Z,2.90
2023-03-25T16:22:43.482Z,4.35
2023-03-25T16:25:17.977Z,12.85
2023-03-25T16:27:52.026Z,5.10
2023-03-25T16:30:26.800Z,4.38
2023-03-25T16:33:12.093Z,4.30
2023-03-25T16:35:45.999Z,3.13
2023-03-25T16:38:18.775Z,1.98
2023-03-25T16:40:49.144Z,2.63
2023-03-25T16:43:22.466Z,2.78
2023-03-25T16:45:52.144Z,2.80
2023-03-25T16:48:29.736Z,2.40
2023-03-25T16:51:03.210Z,4.10
2023-03-25T16:53:35.658Z,4.10
2023-03-25T16:56:31.190Z,4.00
2023-03-25T16:59:01.262Z,2.70
2023-03-25T17:01:34.283Z,2.33
2023-03-25T17:04:19.846Z,2.65
2023-03-25T17:06:53.296Z,2.95
2023-03-25T17:09:23.925Z,3.10
2023-03-25T17:11:57.668Z,3.13
2023-03-25T17:14:34.009Z,2.83
2023-03-25T17:17:27.159Z,4.32
2023-03-25T17:19:56.495Z,3.65
2023-03-25T17:22:33.041Z,6.88
2023-03-25T17:25:18.730Z,5.05
2023-03-25T17:27:48.842Z,6.35
2023-03-25T17:30:32.906Z,2.78
2023-03-25T17:33:40.629Z,5.35
2023-03-25T17:36:13.074Z,2.65
2023-03-25T17:38:47.732Z,2.47
2023-03-25T17:41:21.564Z,4.70
2023-03-25T17:43:54.556Z,1.90
2023-03-25T17:46:28.786Z,4.88
2023-03-25T17:48:58.591Z,8.07
2023-03-25T17:51:31.450Z,6.38
2023-03-25T17:53:59.858Z,5.88
2023-03-25T17:56:28.708Z,4.55
2023-03-25T17:59:08.147Z,2.28
2023-03-25T18:01:36.582Z,1.98
2023-03-25T18:04:05.214Z,1.95
2023-03-25T18:06:32.836Z,1.58
2023-03-25T18:09:02.922Z,1.52
2023-03-25T18:11:32.125Z,1.50
2023-03-25T18:13:59.678Z,1.60
2023-03-25T18:16:28.161Z,1.52
2023-03-25T18:19:03.689Z,1.38
2023-03-25T18:21:32.281Z,1.63
2023-03-25T18:24:02.567Z,1.80
2023-03-25T18:26:30.233Z,1.60
2023-03-25T18:29:02.974Z,2.15
2023-03-25T18:31:31.041Z,1.50
2023-03-25T18:33:58.677Z,1.50
2023-03-25T18:36:27.281Z,1.52
2023-03-25T18:38:57.187Z,1.80
2023-03-25T18:41:26.860Z,1.98
2023-03-25T18:43:58.687Z,1.48
2023-03-25T18:46:28.132Z,2.33
2023-03-25T18:49:02.861Z,2.72
2023-03-25T18:51:32.009Z,4.47
2023-03-25T18:54:01.145Z,4.55
2023-03-25T18:56:29.393Z,5.63
2023-03-25T18:58:58.855Z,5.63
2023-03-25T19:01:27.308Z,5.72
2023-03-25T19:04:05.145Z,6.80
2023-03-25T19:06:34.519Z,9.45
2023-03-25T19:09:04.650Z,9.27
2023-03-25T19:11:34.877Z,8.65
2023-03-25T19:14:04.743Z,4.00
2023-03-25T19:16:35.410Z,4.90
2023-03-25T19:19:10.390Z,4.20
2023-03-25T19:21:42.679Z,4.95
2023-03-25T19:24:10.995Z,4.32
2023-03-25T19:26:41.365Z,8.90
2023-03-25T19:29:10.176Z,6.28
2023-03-25T19:31:38.963Z,6.43
2023-03-25T19:34:09.023Z,6.28
2023-03-25T19:36:37.010Z,4.60
2023-03-25T19:39:07.875Z,4.32
2023-03-25T19:41:42.957Z,5.38
2023-03-25T19:44:14.675Z,5.28
2023-03-25T19:46:50.630Z,4.80
2023-03-25T19:49:29.193Z,4.50
2023-03-25T19:52:07.227Z,3.45
2023-03-25T19:54:44.554Z,3.13
2023-03-25T19:57:20.029Z,2.65
2023-03-25T19:59:48.951Z,3.03
2023-03-25T20:02:18.252Z,5.05
2023-03-25T20:04:49.679Z,2.60
2023-03-25T20:07:17.946Z,2.28
2023-03-25T20:09:46.258Z,2.33
2023-03-25T20:12:15.060Z,2.58
2023-03-25T20:14:50.728Z,2.60
2023-03-25T20:17:19.181Z,3.38
2023-03-25T20:19:49.784Z,3.53
2023-03-25T20:22:24.915Z,3.03
2023-03-25T20:24:56.829Z,2.88
2023-03-25T20:27:31.223Z,2.60
2023-03-25T20:30:06.739Z,3.03
2023-03-25T20:32:41.222Z,2.10
2023-03-25T20:35:13.612Z,1.90
2023-03-25T20:37:43.860Z,2.10
2023-03-25T20:40:16.829Z,2.00
2023-03-25T20:42:46.664Z,2.30
2023-03-25T20:45:17.840Z,3.85
2023-03-25T20:47:48.563Z,2.33
2023-03-25T20:50:19.972Z,1.88
2023-03-25T20:52:48.750Z,3.17
2023-03-25T20:55:18.263Z,2.47
2023-03-25T20:57:45.873Z,2.55
2023-03-25T21:00:15.052Z,2.67
2023-03-25T21:02:44.821Z,2.10
2023-03-25T21:05:12.759Z,2.10
2023-03-25T21:07:41.818Z,2.53
2023-03-25T21:10:10.483Z,1.90
2023-03-25T21:12:43.935Z,2.55
2023-03-25T21:15:15.987Z,2.30
2023-03-25T21:17:45.836Z,2.30
2023-03-25T21:20:14.901Z,2.30
2023-03-25T21:22:44.606Z,2.70
2023-03-25T21:25:15.255Z,2.17
2023-03-25T21:27:45.531Z,2.60
2023-03-25T21:30:16.948Z,2.90
2023-03-25T21:32:46.439Z,2.40
2023-03-25T21:35:15.152Z,2.47
2023-03-25T21:37:42.444Z,2.20
2023-03-25T21:40:12.373Z,2.53
2023-03-25T21:42:43.573Z,2.13
2023-03-25T21:45:16.182Z,2.40
2023-03-25T21:47:53.583Z,2.28
2023-03-25T21:50:21.980Z,2.53
2023-03-25T21:52:49.523Z,2.17
2023-03-25T21:55:17.824Z,2.20
2023-03-25T21:57:45.300Z,2.97
2023-03-25T22:00:17.053Z,2.63
2023-03-25T22:02:45.740Z,3.05
2023-03-25T22:05:16.824Z,2.58
2023-03-25T22:07:45.623Z,2.53
2023-03-25T22:10:13.194Z,2.63
2023-03-25T22:12:40.834Z,2.80
2023-03-25T22:15:09.408Z,3.10
2023-03-25T22:17:37.666Z,2.85
2023-03-25T22:20:05.777Z,2.88
2023-03-25T22:22:33.406Z,2.85
2023-03-25T22:25:01.225Z,3.38
2023-03-25T22:27:28.526Z,4.28
2023-03-25T22:29:55.999Z,3.50
2023-03-25T22:32:27.258Z,3.50
2023-03-25T22:34:54.838Z,3.28
2023-03-25T22:37:22.096Z,3.60
2023-03-25T22:39:49.204Z,3.42
2023-03-25T22:42:16.758Z,4.35
2023-03-25T22:44:44.990Z,4.35
2023-03-25T22:47:12.460Z,4.00
2023-03-25T22:49:42.205Z,4.07
2023-03-25T22:52:09.659Z,4.32
2023-03-25T22:54:39.281Z,5.00
2023-03-25T22:57:08.659Z,4.80
2023-03-25T22:59:36.316Z,3.72
2023-03-25T23:02:03.681Z,3.97
2023-03-25T23:04:38.297Z,3.88
2023-03-25T23:07:08.700Z,4.50
2023-03-25T23:09:42.188Z,3.88
2023-03-25T23:12:17.281Z,4.30
2023-03-25T23:14:54.787Z,3.88
2023-03-25T23:17:26.185Z,4.50
2023-03-25T23:19:53.790Z,3.83
2023-03-25T23:22:21.558Z,4.07
2023-03-25T23:24:49.090Z,3.75
2023-03-25T23:27:16.740Z,4.25
2023-03-25T23:29:43.987Z,4.45
2023-03-25T23:32:11.702Z,4.28
2023-03-25T23:34:45.617Z,6.20
2023-03-25T23:37:12.725Z,6.07
2023-03-25T23:39:40.728Z,4.50
2023-03-25T23:42:15.116Z,4.80
2023-03-25T23:44:45.613Z,4.97
2023-03-25T23:47:13.088Z,5.07
2023-03-25T23:49:40.503Z,5.30
2023-03-25T23:52:11.742Z,5.57
2023-03-25T23:54:40.291Z,4.80
2023-03-25T23:57:07.689Z,4.43
2023-03-25T23:59:37.231Z,4.57
